sensor_id;sensor_type;location;lat;lon;timestamp;pressure;altitude;pressure_sealevel;temperature;humidity
74329;BME280;62749;51.982;5.916;2023-02-15T00:01:23;102774.84;;;5.50;81.25
74329;BME280;62749;51.982;5.916;2023-02-15T00:03:52;102773.06;;;5.49;81.16
74329;BME280;62749;51.982;5.916;2023-02-15T00:06:22;102773.06;;;5.48;80.89
74329;BME280;62749;51.982;5.916;2023-02-15T00:08:54;102771.25;;;5.44;81.38
74329;BME280;62749;51.982;5.916;2023-02-15T00:11:23;102769.50;;;5.43;81.13
74329;BME280;62749;51.982;5.916;2023-02-15T00:14:06;102765.16;;;5.42;81.16
74329;BME280;62749;51.982;5.916;2023-02-15T00:16:40;102769.50;;;5.41;81.10
74329;BME280;62749;51.982;5.916;2023-02-15T00:19:12;102769.50;;;5.40;81.12
74329;BME280;62749;51.982;5.916;2023-02-15T00:21:42;102769.50;;;5.41;81.40
74329;BME280;62749;51.982;5.916;2023-02-15T00:24:14;102773.03;;;5.43;81.41
74329;BME280;62749;51.982;5.916;2023-02-15T00:26:45;102771.19;;;5.36;81.34
74329;BME280;62749;51.982;5.916;2023-02-15T00:29:17;102777.19;;;5.24;81.39
74329;BME280;62749;51.982;5.916;2023-02-15T00:31:51;102776.22;;;5.19;81.82
74329;BME280;62749;51.982;5.916;2023-02-15T00:34:22;102774.38;;;5.10;81.38
74329;BME280;62749;51.982;5.916;2023-02-15T00:36:52;102772.53;;;5.04;81.88
74329;BME280;62749;51.982;5.916;2023-02-15T00:39:21;102761.31;;;5.12;81.88
74329;BME280;62749;51.982;5.916;2023-02-15T00:41:51;102756.97;;;5.15;81.43
74329;BME280;62749;51.982;5.916;2023-02-15T00:44:28;102758.69;;;5.13;81.83
74329;BME280;62749;51.982;5.916;2023-02-15T00:47:00;102761.31;;;5.12;81.74
74329;BME280;62749;51.982;5.916;2023-02-15T00:49:29;102750.81;;;5.12;81.87
74329;BME280;62749;51.982;5.916;2023-02-15T00:51:59;102753.50;;;5.16;81.44
74329;BME280;62749;51.982;5.916;2023-02-15T00:54:28;102757.91;;;5.20;81.73
74329;BME280;62749;51.982;5.916;2023-02-15T00:56:57;102745.59;;;5.12;81.42
74329;BME280;62749;51.982;5.916;2023-02-15T00:59:27;102740.31;;;5.10;81.74
74329;BME280;62749;51.982;5.916;2023-02-15T01:01:56;102748.16;;;5.09;81.54
74329;BME280;62749;51.982;5.916;2023-02-15T01:04:28;102736.81;;;5.08;81.66
74329;BME280;62749;51.982;5.916;2023-02-15T01:06:58;102738.63;;;5.14;81.75
74329;BME280;62749;51.982;5.916;2023-02-15T01:09:28;102737.69;;;5.10;81.46
74329;BME280;62749;51.982;5.916;2023-02-15T01:11:57;102728.06;;;5.06;81.85
74329;BME280;62749;51.982;5.916;2023-02-15T01:14:27;102735.00;;;5.05;81.52
74329;BME280;62749;51.982;5.916;2023-02-15T01:16:56;102731.53;;;5.03;81.68
74329;BME280;62749;51.982;5.916;2023-02-15T01:19:28;102726.19;;;4.99;81.67
74329;BME280;62749;51.982;5.916;2023-02-15T01:21:57;102732.28;;;4.98;81.80
74329;BME280;62749;51.982;5.916;2023-02-15T01:24:27;102724.38;;;4.93;81.98
74329;BME280;62749;51.982;5.916;2023-02-15T01:26:56;102724.38;;;4.93;81.65
74329;BME280;62749;51.982;5.916;2023-02-15T01:29:26;102720.00;;;4.90;81.64
74329;BME280;62749;51.982;5.916;2023-02-15T01:31:55;102723.47;;;4.88;81.76
74329;BME280;62749;51.982;5.916;2023-02-15T01:34:24;102715.50;;;4.82;81.81
74329;BME280;62749;51.982;5.916;2023-02-15T01:36:56;102717.22;;;4.80;82.02
74329;BME280;62749;51.982;5.916;2023-02-15T01:39:26;102719.84;;;4.78;81.88
74329;BME280;62749;51.982;5.916;2023-02-15T01:41:55;102711.06;;;4.74;81.88
74329;BME280;62749;51.982;5.916;2023-02-15T01:44:45;102707.50;;;4.69;81.90
74329;BME280;62749;51.982;5.916;2023-02-15T01:47:22;102710.16;;;4.71;82.37
74329;BME280;62749;51.982;5.916;2023-02-15T01:50:02;102708.41;;;4.70;82.36
74329;BME280;62749;51.982;5.916;2023-02-15T01:52:41;102704.03;;;4.72;82.21
74329;BME280;62749;51.982;5.916;2023-02-15T01:55:13;102710.16;;;4.71;81.92
74329;BME280;62749;51.982;5.916;2023-02-15T01:57:46;102708.34;;;4.68;82.30
74329;BME280;62749;51.982;5.916;2023-02-15T02:00:16;102711.81;;;4.64;82.10
74329;BME280;62749;51.982;5.916;2023-02-15T02:02:51;102704.81;;;4.65;82.25
74329;BME280;62749;51.982;5.916;2023-02-15T02:05:23;102712.63;;;4.60;82.11
74329;BME280;62749;51.982;5.916;2023-02-15T02:07:58;102704.72;;;4.58;82.19
74329;BME280;62749;51.982;5.916;2023-02-15T02:10:29;102702.09;;;4.58;82.40
74329;BME280;62749;51.982;5.916;2023-02-15T02:13:03;102696.84;;;4.55;82.01
74329;BME280;62749;51.982;5.916;2023-02-15T02:15:42;102692.41;;;4.50;82.41
74329;BME280;62749;51.982;5.916;2023-02-15T02:18:34;102688.97;;;4.52;82.59
74329;BME280;62749;51.982;5.916;2023-02-15T02:21:38;102683.72;;;4.54;82.30
74329;BME280;62749;51.982;5.916;2023-02-15T02:24:34;102688.09;;;4.53;82.81
74329;BME280;62749;51.982;5.916;2023-02-15T02:27:26;102680.19;;;4.50;82.51
74329;BME280;62749;51.982;5.916;2023-02-15T02:30:41;102681.03;;;4.48;82.90
74329;BME280;62749;51.982;5.916;2023-02-15T02:33:30;102673.16;;;4.44;82.48
74329;BME280;62749;51.982;5.916;2023-02-15T02:36:14;102671.41;;;4.45;82.95
74329;BME280;62749;51.982;5.916;2023-02-15T02:39:00;102670.53;;;4.46;82.85
74329;BME280;62749;51.982;5.916;2023-02-15T02:41:42;102666.09;;;4.40;82.62
74329;BME280;62749;51.982;5.916;2023-02-15T02:44:19;102670.41;;;4.37;82.65
74329;BME280;62749;51.982;5.916;2023-02-15T02:46:56;102670.38;;;4.34;82.69
74329;BME280;62749;51.982;5.916;2023-02-15T02:49:33;102672.97;;;4.32;82.77
74329;BME280;62749;51.982;5.916;2023-02-15T02:52:07;102656.38;;;4.30;82.67
74329;BME280;62749;51.982;5.916;2023-02-15T02:54:37;102660.69;;;4.28;82.86
74329;BME280;62749;51.982;5.916;2023-02-15T02:57:08;102654.59;;;4.27;82.74
74329;BME280;62749;51.982;5.916;2023-02-15T02:59:44;102651.06;;;4.25;82.55
74329;BME280;62749;51.982;5.916;2023-02-15T03:02:20;102648.47;;;4.25;82.93
74329;BME280;62749;51.982;5.916;2023-02-15T03:04:59;102645.84;;;4.24;83.09
74329;BME280;62749;51.982;5.916;2023-02-15T03:07:32;102651.06;;;4.25;82.79
74329;BME280;62749;51.982;5.916;2023-02-15T03:10:05;102640.56;;;4.22;82.67
74329;BME280;62749;51.982;5.916;2023-02-15T03:12:39;102629.97;;;4.14;82.87
74329;BME280;62749;51.982;5.916;2023-02-15T03:15:16;102639.59;;;4.15;82.74
74329;BME280;62749;51.982;5.916;2023-02-15T03:17:55;102639.59;;;4.14;82.79
74329;BME280;62749;51.982;5.916;2023-02-15T03:20:32;102638.78;;;4.18;83.03
74329;BME280;62749;51.982;5.916;2023-02-15T03:23:06;102631.78;;;4.17;83.00
74329;BME280;62749;51.982;5.916;2023-02-15T03:25:42;102628.22;;;4.12;82.71
74329;BME280;62749;51.982;5.916;2023-02-15T03:28:17;102628.19;;;4.10;82.87
74329;BME280;62749;51.982;5.916;2023-02-15T03:30:53;102622.94;;;4.09;82.78
74329;BME280;62749;51.982;5.916;2023-02-15T03:33:27;102624.63;;;4.04;83.40
74329;BME280;62749;51.982;5.916;2023-02-15T03:36:04;102615.88;;;4.03;83.46
74329;BME280;62749;51.982;5.916;2023-02-15T03:38:46;102613.31;;;4.06;83.22
74329;BME280;62749;51.982;5.916;2023-02-15T03:41:19;102621.94;;;3.99;83.46
74329;BME280;62749;51.982;5.916;2023-02-15T03:43:57;102621.88;;;3.96;83.99
74329;BME280;62749;51.982;5.916;2023-02-15T03:46:33;102614.91;;;3.96;83.45
74329;BME280;62749;51.982;5.916;2023-02-15T03:49:08;102612.28;;;3.93;83.58
74329;BME280;62749;51.982;5.916;2023-02-15T03:51:44;102613.91;;;3.88;83.39
74329;BME280;62749;51.982;5.916;2023-02-15T03:54:19;102606.81;;;3.81;83.62
74329;BME280;62749;51.982;5.916;2023-02-15T03:57:02;102604.19;;;3.78;83.75
74329;BME280;62749;51.982;5.916;2023-02-15T03:59:44;102610.19;;;3.72;83.09
74329;BME280;62749;51.982;5.916;2023-02-15T04:02:36;102605.84;;;3.73;83.39
74329;BME280;62749;51.982;5.916;2023-02-15T04:05:07;102596.28;;;3.73;83.68
74329;BME280;62749;51.982;5.916;2023-02-15T04:07:39;102601.47;;;3.72;83.68
74329;BME280;62749;51.982;5.916;2023-02-15T04:10:09;102603.25;;;3.74;83.82
74329;BME280;62749;51.982;5.916;2023-02-15T04:12:51;102603.22;;;3.71;83.57
74329;BME280;62749;51.982;5.916;2023-02-15T04:15:20;102596.09;;;3.62;83.70
74329;BME280;62749;51.982;5.916;2023-02-15T04:18:03;102600.34;;;3.57;83.95
74329;BME280;62749;51.982;5.916;2023-02-15T04:20:32;102598.59;;;3.55;84.05
74329;BME280;62749;51.982;5.916;2023-02-15T04:23:17;102592.50;;;3.54;84.40
74329;BME280;62749;51.982;5.916;2023-02-15T04:25:59;102588.19;;;3.58;84.40
74329;BME280;62749;51.982;5.916;2023-02-15T04:28:31;102592.50;;;3.54;84.03
74329;BME280;62749;51.982;5.916;2023-02-15T04:31:00;102589.03;;;3.57;83.79
74329;BME280;62749;51.982;5.916;2023-02-15T04:33:30;102588.06;;;3.51;83.94
74329;BME280;62749;51.982;5.916;2023-02-15T04:36:02;102588.97;;;3.52;83.61
74329;BME280;62749;51.982;5.916;2023-02-15T04:38:34;102597.69;;;3.52;83.55
74329;BME280;62749;51.982;5.916;2023-02-15T04:41:04;102596.84;;;3.55;83.68
74329;BME280;62749;51.982;5.916;2023-02-15T04:43:33;102592.50;;;3.54;83.53
74329;BME280;62749;51.982;5.916;2023-02-15T04:46:03;102592.38;;;3.48;83.14
74329;BME280;62749;51.982;5.916;2023-02-15T04:48:32;102588.84;;;3.44;83.60
74329;BME280;62749;51.982;5.916;2023-02-15T04:51:05;102589.75;;;3.46;83.53
74329;BME280;62749;51.982;5.916;2023-02-15T04:53:38;102586.19;;;3.43;83.88
74329;BME280;62749;51.982;5.916;2023-02-15T04:56:07;102587.09;;;3.45;83.66
74329;BME280;62749;51.982;5.916;2023-02-15T04:58:37;102583.56;;;3.43;83.42
74329;BME280;62749;51.982;5.916;2023-02-15T05:01:08;102584.41;;;3.38;83.51
74329;BME280;62749;51.982;5.916;2023-02-15T05:03:37;102585.25;;;3.37;84.14
74329;BME280;62749;51.982;5.916;2023-02-15T05:06:07;102573.03;;;3.35;84.11
74329;BME280;62749;51.982;5.916;2023-02-15T05:08:39;102578.31;;;3.40;84.10
74329;BME280;62749;51.982;5.916;2023-02-15T05:11:08;102583.44;;;3.33;84.40
74329;BME280;62749;51.982;5.916;2023-02-15T05:13:38;102579.91;;;3.31;84.22
74329;BME280;62749;51.982;5.916;2023-02-15T05:16:07;102579.97;;;3.34;84.20
74329;BME280;62749;51.982;5.916;2023-02-15T05:18:37;102579.91;;;3.31;83.67
74329;BME280;62749;51.982;5.916;2023-02-15T05:21:06;102569.44;;;3.28;83.74
74329;BME280;62749;51.982;5.916;2023-02-15T05:23:39;102571.13;;;3.26;84.04
74329;BME280;62749;51.982;5.916;2023-02-15T05:26:09;102569.22;;;3.16;83.67
74329;BME280;62749;51.982;5.916;2023-02-15T05:28:51;102568.25;;;3.11;84.16
74329;BME280;62749;51.982;5.916;2023-02-15T05:31:21;102561.25;;;3.08;84.26
74329;BME280;62749;51.982;5.916;2023-02-15T05:33:50;102573.41;;;3.06;83.89
74329;BME280;62749;51.982;5.916;2023-02-15T05:36:20;102567.31;;;3.07;84.27
74329;BME280;62749;51.982;5.916;2023-02-15T05:38:52;102569.03;;;3.06;84.13
74329;BME280;62749;51.982;5.916;2023-02-15T05:41:21;102560.28;;;3.04;84.30
74329;BME280;62749;51.982;5.916;2023-02-15T05:43:54;102551.72;;;3.12;84.00
74329;BME280;62749;51.982;5.916;2023-02-15T05:46:23;102560.44;;;3.12;83.83
74329;BME280;62749;51.982;5.916;2023-02-15T05:48:53;102557.78;;;3.09;83.91
74329;BME280;62749;51.982;5.916;2023-02-15T05:51:22;102556.81;;;3.05;83.46
74329;BME280;62749;51.982;5.916;2023-02-15T05:53:54;102559.44;;;3.04;83.48
74329;BME280;62749;51.982;5.916;2023-02-15T05:56:24;102559.34;;;2.99;83.66
74329;BME280;62749;51.982;5.916;2023-02-15T05:58:53;102559.28;;;2.96;83.65
74329;BME280;62749;51.982;5.916;2023-02-15T06:01:23;102553.06;;;2.88;83.58
74329;BME280;62749;51.982;5.916;2023-02-15T06:03:52;102563.56;;;2.92;83.74
74329;BME280;62749;51.982;5.916;2023-02-15T06:06:22;102571.44;;;2.94;83.60
74329;BME280;62749;51.982;5.916;2023-02-15T06:08:54;102567.06;;;2.93;83.55
74329;BME280;62749;51.982;5.916;2023-02-15T06:11:23;102562.69;;;2.92;83.48
74329;BME280;62749;51.982;5.916;2023-02-15T06:13:52;102567.88;;;2.89;83.33
74329;BME280;62749;51.982;5.916;2023-02-15T06:16:22;102561.81;;;2.90;83.81
74329;BME280;62749;51.982;5.916;2023-02-15T06:18:51;102568.78;;;2.92;83.47
74329;BME280;62749;51.982;5.916;2023-02-15T06:21:21;102572.28;;;2.93;83.76
74329;BME280;62749;51.982;5.916;2023-02-15T06:23:50;102568.75;;;2.91;83.37
74329;BME280;62749;51.982;5.916;2023-02-15T06:26:22;102567.91;;;2.92;83.67
74329;BME280;62749;51.982;5.916;2023-02-15T06:28:52;102572.28;;;2.93;83.34
74329;BME280;62749;51.982;5.916;2023-02-15T06:31:21;102561.66;;;2.84;83.17
74329;BME280;62749;51.982;5.916;2023-02-15T06:33:50;102566.03;;;2.83;83.33
74329;BME280;62749;51.982;5.916;2023-02-15T06:36:27;102567.75;;;2.84;83.62
74329;BME280;62749;51.982;5.916;2023-02-15T06:38:57;102566.03;;;2.85;83.60
74329;BME280;62749;51.982;5.916;2023-02-15T06:41:29;102566.88;;;2.84;83.29
74329;BME280;62749;51.982;5.916;2023-02-15T06:43:58;102569.50;;;2.82;83.26
74329;BME280;62749;51.982;5.916;2023-02-15T06:46:28;102573.88;;;2.85;83.24
74329;BME280;62749;51.982;5.916;2023-02-15T06:48:57;102563.31;;;2.79;83.63
74329;BME280;62749;51.982;5.916;2023-02-15T06:51:26;102565.06;;;2.80;83.61
74329;BME280;62749;51.982;5.916;2023-02-15T06:53:56;102565.06;;;2.80;83.60
74329;BME280;62749;51.982;5.916;2023-02-15T06:56:25;102562.53;;;2.83;83.41
74329;BME280;62749;51.982;5.916;2023-02-15T06:58:57;102552.91;;;2.80;83.40
74329;BME280;62749;51.982;5.916;2023-02-15T07:01:27;102559.81;;;2.76;83.23
74329;BME280;62749;51.982;5.916;2023-02-15T07:03:56;102554.47;;;2.72;83.00
74329;BME280;62749;51.982;5.916;2023-02-15T07:06:26;102548.25;;;2.65;83.81
74329;BME280;62749;51.982;5.916;2023-02-15T07:08:55;102554.28;;;2.61;83.80
74329;BME280;62749;51.982;5.916;2023-02-15T07:11:24;102543.03;;;2.65;83.99
74329;BME280;62749;51.982;5.916;2023-02-15T07:14:09;102539.66;;;2.69;83.46
74329;BME280;62749;51.982;5.916;2023-02-15T07:16:39;102548.53;;;2.79;83.40
74329;BME280;62749;51.982;5.916;2023-02-15T07:19:08;102548.56;;;2.81;83.26
74329;BME280;62749;51.982;5.916;2023-02-15T07:21:38;102539.81;;;2.79;83.48
74329;BME280;62749;51.982;5.916;2023-02-15T07:24:07;102546.00;;;2.82;83.22
74329;BME280;62749;51.982;5.916;2023-02-15T07:26:37;102533.78;;;2.81;83.16
74329;BME280;62749;51.982;5.916;2023-02-15T07:29:09;102531.09;;;2.76;83.25
74329;BME280;62749;51.982;5.916;2023-02-15T07:31:38;102530.28;;;2.81;83.37
74329;BME280;62749;51.982;5.916;2023-02-15T07:34:09;102520.59;;;2.75;83.38
74329;BME280;62749;51.982;5.916;2023-02-15T07:36:39;102529.34;;;2.75;83.36
74329;BME280;62749;51.982;5.916;2023-02-15T07:39:10;102525.81;;;2.73;83.69
74329;BME280;62749;51.982;5.916;2023-02-15T07:41:40;102524.22;;;2.82;83.58
74329;BME280;62749;51.982;5.916;2023-02-15T07:44:14;102526.19;;;2.94;83.35
74329;BME280;62749;51.982;5.916;2023-02-15T07:46:44;102529.63;;;2.92;82.89
74329;BME280;62749;51.982;5.916;2023-02-15T07:49:14;102524.47;;;2.96;82.62
74329;BME280;62749;51.982;5.916;2023-02-15T07:51:43;102524.56;;;3.02;82.94
74329;BME280;62749;51.982;5.916;2023-02-15T07:54:13;102525.59;;;3.12;82.93
74329;BME280;62749;51.982;5.916;2023-02-15T07:56:42;102520.13;;;2.96;82.45
74329;BME280;62749;51.982;5.916;2023-02-15T07:59:14;102512.44;;;3.05;82.81
74329;BME280;62749;51.982;5.916;2023-02-15T08:01:44;102518.69;;;3.14;82.27
74329;BME280;62749;51.982;5.916;2023-02-15T08:04:13;102516.16;;;3.20;82.38
74329;BME280;62749;51.982;5.916;2023-02-15T08:06:44;102505.69;;;3.18;82.33
74329;BME280;62749;51.982;5.916;2023-02-15T08:09:13;102510.13;;;3.24;81.82
74329;BME280;62749;51.982;5.916;2023-02-15T08:11:43;102511.97;;;3.31;81.50
74329;BME280;62749;51.982;5.916;2023-02-15T08:14:17;102507.72;;;3.36;81.61
74329;BME280;62749;51.982;5.916;2023-02-15T08:16:48;102500.91;;;3.48;81.24
74329;BME280;62749;51.982;5.916;2023-02-15T08:19:20;102507.91;;;3.50;80.51
74329;BME280;62749;51.982;5.916;2023-02-15T08:21:52;102499.28;;;3.56;80.27
74329;BME280;62749;51.982;5.916;2023-02-15T08:24:26;102495.75;;;3.52;80.17
74329;BME280;62749;51.982;5.916;2023-02-15T08:26:56;102502.06;;;3.65;80.35
74329;BME280;62749;51.982;5.916;2023-02-15T08:29:29;102495.97;;;3.68;79.93
74329;BME280;62749;51.982;5.916;2023-02-15T08:32:01;102482.13;;;3.75;79.88
74329;BME280;62749;51.982;5.916;2023-02-15T08:34:33;102481.31;;;3.78;79.39
74329;BME280;62749;51.982;5.916;2023-02-15T08:37:02;102488.28;;;3.79;79.49
74329;BME280;62749;51.982;5.916;2023-02-15T08:39:32;102477.84;;;3.82;79.70
74329;BME280;62749;51.982;5.916;2023-02-15T08:42:02;102478.91;;;3.93;79.67
74329;BME280;62749;51.982;5.916;2023-02-15T08:44:34;102473.72;;;3.99;78.91
74329;BME280;62749;51.982;5.916;2023-02-15T08:47:04;102473.03;;;4.14;78.80
74329;BME280;62749;51.982;5.916;2023-02-15T08:49:33;102470.50;;;4.21;78.44
74329;BME280;62749;51.982;5.916;2023-02-15T08:52:03;102477.53;;;4.26;77.88
74329;BME280;62749;51.982;5.916;2023-02-15T08:54:33;102476.72;;;4.32;78.08
74329;BME280;62749;51.982;5.916;2023-02-15T08:57:02;102474.91;;;4.26;77.52
74329;BME280;62749;51.982;5.916;2023-02-15T08:59:36;102468.81;;;4.26;77.12
74329;BME280;62749;51.982;5.916;2023-02-15T09:02:05;102476.69;;;4.29;77.03
74329;BME280;62749;51.982;5.916;2023-02-15T09:04:34;102475.06;;;4.39;77.91
74329;BME280;62749;51.982;5.916;2023-02-15T09:07:04;102476.91;;;4.48;77.36
74329;BME280;62749;51.982;5.916;2023-02-15T09:09:34;102469.97;;;4.54;77.40
74329;BME280;62749;51.982;5.916;2023-02-15T09:12:04;102469.13;;;4.55;77.56
74329;BME280;62749;51.982;5.916;2023-02-15T09:14:36;102463.06;;;4.63;76.94
74329;BME280;62749;51.982;5.916;2023-02-15T09:17:06;102465.75;;;4.70;76.87
74329;BME280;62749;51.982;5.916;2023-02-15T09:19:35;102465.03;;;4.87;76.66
74329;BME280;62749;51.982;5.916;2023-02-15T09:22:04;102459.78;;;4.85;76.77
74329;BME280;62749;51.982;5.916;2023-02-15T09:24:35;102462.44;;;4.88;77.00
74329;BME280;62749;51.982;5.916;2023-02-15T09:27:04;102467.69;;;4.90;76.46
74329;BME280;62749;51.982;5.916;2023-02-15T09:29:36;102463.34;;;4.95;76.62
74329;BME280;62749;51.982;5.916;2023-02-15T09:32:06;102466.09;;;5.12;76.38
74329;BME280;62749;51.982;5.916;2023-02-15T09:34:35;102466.13;;;5.17;76.12
74329;BME280;62749;51.982;5.916;2023-02-15T09:37:05;102468.78;;;5.20;75.69
74329;BME280;62749;51.982;5.916;2023-02-15T09:39:39;102467.06;;;5.23;75.28
74329;BME280;62749;51.982;5.916;2023-02-15T09:42:28;102468.88;;;5.29;75.55
74329;BME280;62749;51.982;5.916;2023-02-15T09:45:26;102462.81;;;5.43;75.59
74329;BME280;62749;51.982;5.916;2023-02-15T09:48:19;102465.50;;;5.47;74.96
74329;BME280;62749;51.982;5.916;2023-02-15T09:51:07;102470.81;;;5.66;75.52
74329;BME280;62749;51.982;5.916;2023-02-15T09:53:58;102458.63;;;5.77;75.24
74329;BME280;62749;51.982;5.916;2023-02-15T09:56:37;102457.81;;;5.86;74.67
74329;BME280;62749;51.982;5.916;2023-02-15T09:59:16;102448.28;;;6.02;74.60
74329;BME280;62749;51.982;5.916;2023-02-15T10:02:01;102450.06;;;6.16;74.45
74329;BME280;62749;51.982;5.916;2023-02-15T10:04:53;102448.31;;;6.18;73.94
74329;BME280;62749;51.982;5.916;2023-02-15T10:07:42;102458.84;;;6.30;73.76
74329;BME280;62749;51.982;5.916;2023-02-15T10:10:27;102450.13;;;6.36;73.84
74329;BME280;62749;51.982;5.916;2023-02-15T10:13:18;102435.25;;;6.38;73.12
74329;BME280;62749;51.982;5.916;2023-02-15T10:16:08;102447.53;;;6.64;72.48
74329;BME280;62749;51.982;5.916;2023-02-15T10:18:55;102444.91;;;6.76;72.81
74329;BME280;62749;51.982;5.916;2023-02-15T10:21:40;102448.44;;;6.94;72.70
74329;BME280;62749;51.982;5.916;2023-02-15T10:24:30;102445.78;;;7.07;71.60
74329;BME280;62749;51.982;5.916;2023-02-15T10:27:11;102451.03;;;7.29;71.31
74329;BME280;62749;51.982;5.916;2023-02-15T10:29:51;102446.63;;;7.48;70.80
74329;BME280;62749;51.982;5.916;2023-02-15T10:32:34;102445.69;;;7.59;69.74
74329;BME280;62749;51.982;5.916;2023-02-15T10:35:19;102447.41;;;7.72;70.13
74329;BME280;62749;51.982;5.916;2023-02-15T10:38:08;102436.88;;;7.77;68.72
74329;BME280;62749;51.982;5.916;2023-02-15T10:40:51;102444.72;;;7.89;68.98
74329;BME280;62749;51.982;5.916;2023-02-15T10:43:45;102441.19;;;7.93;68.46
74329;BME280;62749;51.982;5.916;2023-02-15T10:46:33;102439.44;;;7.89;68.63
74329;BME280;62749;51.982;5.916;2023-02-15T10:49:35;102443.75;;;8.06;68.52
74329;BME280;62749;51.982;5.916;2023-02-15T10:52:23;102439.25;;;8.20;68.46
74329;BME280;62749;51.982;5.916;2023-02-15T10:55:06;102433.91;;;8.36;68.24
74329;BME280;62749;51.982;5.916;2023-02-15T10:57:51;102425.88;;;8.60;67.20
74329;BME280;62749;51.982;5.916;2023-02-15T11:00:34;102434.66;;;8.59;66.67
74329;BME280;62749;51.982;5.916;2023-02-15T11:03:28;102435.53;;;8.58;66.55
74329;BME280;62749;51.982;5.916;2023-02-15T11:06:05;102430.25;;;8.65;66.32
74329;BME280;62749;51.982;5.916;2023-02-15T11:08:42;102438.78;;;8.93;65.85
74329;BME280;62749;51.982;5.916;2023-02-15T11:11:20;102429.94;;;9.00;65.09
74329;BME280;62749;51.982;5.916;2023-02-15T11:13:58;102427.19;;;9.13;64.03
74329;BME280;62749;51.982;5.916;2023-02-15T11:16:34;102428.84;;;9.23;64.68
74329;BME280;62749;51.982;5.916;2023-02-15T11:19:11;102420.81;;;9.32;64.33
74329;BME280;62749;51.982;5.916;2023-02-15T11:21:45;102424.28;;;9.41;63.20
74329;BME280;62749;51.982;5.916;2023-02-15T11:24:20;102426.38;;;9.86;60.77
74329;BME280;62749;51.982;5.916;2023-02-15T11:26:56;102423.91;;;10.36;60.01
74329;BME280;62749;51.982;5.916;2023-02-15T11:29:33;102412.00;;;10.68;58.62
74329;BME280;62749;51.982;5.916;2023-02-15T11:32:18;102415.53;;;10.65;58.23
74329;BME280;62749;51.982;5.916;2023-02-15T11:34:53;102407.53;;;11.20;57.04
74329;BME280;62749;51.982;5.916;2023-02-15T11:37:30;102407.81;;;11.04;57.18
74329;BME280;62749;51.982;5.916;2023-02-15T11:40:19;102405.44;;;10.90;57.02
74329;BME280;62749;51.982;5.916;2023-02-15T11:42:55;102397.16;;;10.59;57.33
74329;BME280;62749;51.982;5.916;2023-02-15T11:45:28;102396.34;;;11.05;54.97
74329;BME280;62749;51.982;5.916;2023-02-15T11:47:59;102392.34;;;11.31;55.13
74329;BME280;62749;51.982;5.916;2023-02-15T11:50:32;102395.72;;;10.91;56.21
74329;BME280;62749;51.982;5.916;2023-02-15T11:53:06;102390.81;;;10.69;56.47
74329;BME280;62749;51.982;5.916;2023-02-15T11:55:42;102380.75;;;10.92;56.37
74329;BME280;62749;51.982;5.916;2023-02-15T11:58:23;102375.31;;;10.99;55.75
74329;BME280;62749;51.982;5.916;2023-02-15T12:00:59;102363.09;;;10.92;57.04
74329;BME280;62749;51.982;5.916;2023-02-15T12:03:42;102365.97;;;10.80;56.89
74329;BME280;62749;51.982;5.916;2023-02-15T12:06:20;102366.84;;;10.79;55.85
74329;BME280;62749;51.982;5.916;2023-02-15T12:08:57;102359.91;;;10.74;56.62
74329;BME280;62749;51.982;5.916;2023-02-15T12:11:35;102353.59;;;10.83;57.18
74329;BME280;62749;51.982;5.916;2023-02-15T12:14:07;102345.72;;;10.79;57.50
74329;BME280;62749;51.982;5.916;2023-02-15T12:16:44;102348.13;;;10.93;57.12
74329;BME280;62749;51.982;5.916;2023-02-15T12:19:32;102332.91;;;11.04;56.63
74329;BME280;62749;51.982;5.916;2023-02-15T12:22:20;102328.44;;;11.08;56.83
74329;BME280;62749;51.982;5.916;2023-02-15T12:24:54;102331.88;;;11.13;56.74
74329;BME280;62749;51.982;5.916;2023-02-15T12:27:29;102325.78;;;11.09;55.74
74329;BME280;62749;51.982;5.916;2023-02-15T12:30:06;102335.22;;;11.21;55.80
74329;BME280;62749;51.982;5.916;2023-02-15T12:32:48;102331.44;;;11.34;55.91
74329;BME280;62749;51.982;5.916;2023-02-15T12:35:27;102317.97;;;11.45;55.03
74329;BME280;62749;51.982;5.916;2023-02-15T12:38:03;102323.59;;;11.30;55.50
74329;BME280;62749;51.982;5.916;2023-02-15T12:40:33;102319.94;;;11.35;56.05
74329;BME280;62749;51.982;5.916;2023-02-15T12:43:25;102322.31;;;11.48;57.07
74329;BME280;62749;51.982;5.916;2023-02-15T12:46:13;102316.81;;;11.57;56.28
74329;BME280;62749;51.982;5.916;2023-02-15T12:49:05;102322.09;;;11.59;55.87
74329;BME280;62749;51.982;5.916;2023-02-15T12:51:44;102314.69;;;11.75;54.48
74329;BME280;62749;51.982;5.916;2023-02-15T12:54:33;102312.88;;;11.77;55.62
74329;BME280;62749;51.982;5.916;2023-02-15T12:57:22;102317.16;;;11.82;54.43
74329;BME280;62749;51.982;5.916;2023-02-15T12:59:58;102312.59;;;11.88;53.96
74329;BME280;62749;51.982;5.916;2023-02-15T13:02:35;102303.97;;;11.81;54.39
74329;BME280;62749;51.982;5.916;2023-02-15T13:05:17;102310.06;;;11.85;55.32
74329;BME280;62749;51.982;5.916;2023-02-15T13:07:54;102306.34;;;11.93;54.82
74329;BME280;62749;51.982;5.916;2023-02-15T13:10:28;102297.50;;;12.31;54.23
74329;BME280;62749;51.982;5.916;2023-02-15T13:12:58;102296.44;;;12.38;54.08
74329;BME280;62749;51.982;5.916;2023-02-15T13:15:36;102288.94;;;12.54;53.60
74329;BME280;62749;51.982;5.916;2023-02-15T13:18:14;102286.91;;;12.31;53.33
74329;BME280;62749;51.982;5.916;2023-02-15T13:20:46;102286.28;;;12.21;53.68
74329;BME280;62749;51.982;5.916;2023-02-15T13:23:26;102283.44;;;12.28;54.09
74329;BME280;62749;51.982;5.916;2023-02-15T13:25:59;102283.19;;;12.38;53.85
74329;BME280;62749;51.982;5.916;2023-02-15T13:28:39;102284.13;;;12.35;53.84
74329;BME280;62749;51.982;5.916;2023-02-15T13:31:15;102288.16;;;12.50;53.54
74329;BME280;62749;51.982;5.916;2023-02-15T13:33:51;102282.59;;;12.59;53.63
74329;BME280;62749;51.982;5.916;2023-02-15T13:36:29;102267.28;;;12.38;54.30
74329;BME280;62749;51.982;5.916;2023-02-15T13:39:15;102260.16;;;12.40;54.08